createdAt,value
2019-02-27T00:01:24.697Z,92.32
2019-02-27T00:03:53.577Z,91.90
2019-02-27T00:06:22.448Z,92.33
2019-02-27T00:08:51.296Z,92.14
2019-02-27T00:11:20.158Z,92.47
2019-02-27T00:13:49.065Z,91.85
2019-02-27T00:16:17.910Z,92.73
2019-02-27T00:18:47.735Z,92.84
2019-02-27T00:21:16.599Z,93.34
2019-02-27T00:23:45.486Z,92.95
2019-02-27T00:26:14.361Z,92.82
2019-02-27T00:28:43.300Z,93.27
2019-02-27T00:31:12.189Z,93.45
2019-02-27T00:33:41.058Z,93.12
2019-02-27T00:36:12.388Z,93.32
2019-02-27T00:38:40.547Z,92.91
2019-02-27T00:41:12.068Z,92.75
2019-02-27T00:43:40.191Z,93.15
2019-02-27T00:46:10.751Z,93.11
2019-02-27T00:48:39.675Z,93.05
2019-02-27T00:51:09.632Z,92.94
2019-02-27T00:53:39.199Z,93.78
2019-02-27T00:56:11.912Z,94.29
2019-02-27T00:58:38.693Z,95.05
2019-02-27T01:01:10.021Z,95.22
2019-02-27T01:03:38.248Z,95.35
2019-02-27T01:06:07.180Z,95.42
2019-02-27T01:08:36.067Z,95.33
2019-02-27T01:11:04.933Z,95.28
2019-02-27T01:13:33.831Z,95.91
2019-02-27T01:16:02.683Z,96.18
2019-02-27T01:18:31.569Z,95.32
2019-02-27T01:21:00.463Z,95.30
2019-02-27T01:23:29.312Z,95.19
2019-02-27T01:25:58.181Z,94.84
2019-02-27T01:28:27.095Z,95.00
2019-02-27T01:30:55.975Z,94.72
2019-02-27T01:33:24.841Z,94.30
2019-02-27T01:35:55.217Z,95.17
2019-02-27T01:38:24.107Z,95.57
2019-02-27T01:40:52.955Z,95.83
2019-02-27T01:43:21.827Z,96.17
2019-02-27T01:45:51.862Z,95.78
2019-02-27T01:48:21.322Z,96.06
2019-02-27T01:50:50.182Z,95.88
2019-02-27T01:53:19.071Z,94.72
2019-02-27T01:55:47.925Z,94.30
2019-02-27T01:58:16.815Z,94.69
2019-02-27T02:00:45.983Z,95.04
2019-02-27T02:03:14.857Z,95.26
2019-02-27T02:05:43.717Z,95.72
2019-02-27T02:08:13.963Z,95.77
2019-02-27T02:10:43.201Z,95.90
2019-02-27T02:13:15.868Z,96.06
2019-02-27T02:15:54.421Z,96.00
2019-02-27T02:18:45.738Z,94.82
2019-02-27T02:21:19.233Z,94.95
2019-02-27T02:24:15.594Z,95.55
2019-02-27T02:27:02.171Z,95.71
2019-02-27T02:30:07.356Z,96.18
2019-02-27T02:33:08.007Z,96.41
2019-02-27T02:35:58.196Z,96.38
2019-02-27T02:38:49.978Z,96.46
2019-02-27T02:41:47.904Z,96.74
2019-02-27T02:44:43.969Z,97.05
2019-02-27T02:47:21.250Z,96.20
2019-02-27T02:50:10.274Z,95.71
2019-02-27T02:52:54.152Z,95.67
2019-02-27T02:55:28.755Z,95.20
2019-02-27T02:58:15.817Z,95.50
2019-02-27T03:01:05.675Z,95.73
2019-02-27T03:03:52.324Z,95.25
2019-02-27T03:06:34.739Z,95.63
2019-02-27T03:09:15.453Z,95.75
2019-02-27T03:11:54.141Z,95.67
2019-02-27T03:14:43.100Z,95.91
2019-02-27T03:17:26.592Z,95.86
2019-02-27T03:20:17.638Z,96.12
2019-02-27T03:22:52.523Z,96.34
2019-02-27T03:25:43.863Z,95.93
2019-02-27T03:28:18.690Z,95.63
2019-02-27T03:30:56.511Z,95.28
2019-02-27T03:33:54.023Z,95.13
2019-02-27T03:36:46.862Z,94.99
2019-02-27T03:39:21.488Z,95.33
2019-02-27T03:41:59.376Z,95.08
2019-02-27T03:44:29.790Z,94.79
2019-02-27T03:47:22.901Z,95.37
2019-02-27T03:50:03.651Z,95.69
2019-02-27T03:52:53.650Z,95.54
2019-02-27T03:55:32.891Z,95.56
2019-02-27T03:58:21.494Z,95.38
2019-02-27T04:01:05.164Z,94.91
2019-02-27T04:03:54.194Z,94.21
2019-02-27T04:06:31.641Z,94.02
2019-02-27T04:09:00.699Z,94.07
2019-02-27T04:11:29.599Z,94.74
2019-02-27T04:14:03.377Z,94.79
2019-02-27T04:16:30.539Z,95.02
2019-02-27T04:19:03.119Z,95.16
2019-02-27T04:21:30.308Z,94.78
2019-02-27T04:23:59.164Z,95.37
2019-02-27T04:26:28.054Z,96.13
2019-02-27T04:28:56.939Z,96.37
2019-02-27T04:31:29.617Z,96.30
2019-02-27T04:33:59.600Z,96.14
2019-02-27T04:36:27.006Z,96.23
2019-02-27T04:38:55.900Z,96.40
2019-02-27T04:41:24.780Z,96.53
2019-02-27T04:43:53.658Z,96.59
2019-02-27T04:46:22.550Z,96.52
2019-02-27T04:48:51.430Z,96.39
2019-02-27T04:51:20.314Z,96.72
2019-02-27T04:53:49.174Z,96.84
2019-02-27T04:56:18.036Z,96.80
2019-02-27T04:58:46.914Z,96.64
2019-02-27T05:01:15.782Z,96.76
2019-02-27T05:03:44.678Z,96.46
2019-02-27T05:06:14.516Z,96.44
2019-02-27T05:08:44.083Z,96.12
2019-02-27T05:11:14.192Z,95.34
2019-02-27T05:13:43.622Z,96.20
2019-02-27T05:16:14.161Z,96.18
2019-02-27T05:18:43.092Z,95.96
2019-02-27T05:21:11.964Z,95.77
2019-02-27T05:23:40.849Z,95.94
2019-02-27T05:26:09.710Z,95.27
2019-02-27T05:28:38.570Z,95.84
2019-02-27T05:31:07.430Z,95.91
2019-02-27T05:33:39.549Z,95.33
2019-02-27T05:36:06.945Z,95.38
2019-02-27T05:38:35.792Z,96.24
2019-02-27T05:41:04.657Z,95.78
2019-02-27T05:43:33.559Z,95.24
2019-02-27T05:46:03.155Z,95.15
2019-02-27T05:48:32.696Z,95.84
2019-02-27T05:51:01.581Z,95.76
2019-02-27T05:53:30.434Z,96.41
2019-02-27T05:55:59.309Z,96.66
2019-02-27T05:58:28.196Z,96.45
2019-02-27T06:00:57.060Z,96.22
2019-02-27T06:03:25.958Z,96.23
2019-02-27T06:05:54.880Z,95.86
2019-02-27T06:08:23.752Z,95.23
2019-02-27T06:10:56.010Z,95.34
2019-02-27T06:13:23.266Z,95.57
2019-02-27T06:15:52.150Z,94.78
2019-02-27T06:18:23.479Z,94.61
2019-02-27T06:20:51.621Z,94.67
2019-02-27T06:23:20.519Z,94.92
2019-02-27T06:25:49.397Z,94.59
2019-02-27T06:28:18.730Z,94.44
2019-02-27T06:30:48.243Z,94.35
2019-02-27T06:33:17.151Z,94.01
2019-02-27T06:35:46.114Z,93.40
2019-02-27T06:38:15.034Z,92.87
2019-02-27T06:40:43.891Z,92.67
2019-02-27T06:43:12.790Z,92.93
2019-02-27T06:45:45.590Z,92.92
2019-02-27T06:48:12.254Z,93.25
2019-02-27T06:50:41.130Z,93.55
2019-02-27T06:53:10.014Z,93.37
2019-02-27T06:55:38.884Z,93.07
2019-02-27T06:58:07.777Z,92.45
2019-02-27T07:00:36.866Z,91.91
2019-02-27T07:03:05.818Z,91.63
2019-02-27T07:05:34.668Z,91.38
2019-02-27T07:08:05.211Z,91.14
2019-02-27T07:10:34.304Z,90.70
2019-02-27T07:13:03.161Z,89.91
2019-02-27T07:15:32.054Z,89.49
2019-02-27T07:18:03.418Z,88.98
2019-02-27T07:20:31.510Z,88.63
2019-02-27T07:23:00.368Z,87.67
2019-02-27T07:25:29.414Z,87.37
2019-02-27T07:27:58.318Z,86.87
2019-02-27T07:30:27.172Z,86.16
2019-02-27T07:32:56.628Z,85.83
2019-02-27T07:35:27.569Z,85.71
2019-02-27T07:37:56.058Z,85.28
2019-02-27T07:40:24.953Z,85.05
2019-02-27T07:42:53.852Z,83.97
2019-02-27T07:45:23.476Z,83.95
2019-02-27T07:47:54.318Z,83.29
2019-02-27T07:50:23.187Z,83.36
2019-02-27T07:52:52.343Z,83.79
2019-02-27T07:55:22.966Z,82.94
2019-02-27T07:57:51.896Z,82.67
2019-02-27T08:00:22.120Z,82.96
2019-02-27T08:02:50.986Z,82.88
2019-02-27T08:05:19.934Z,80.44
2019-02-27T08:07:49.770Z,78.68
2019-02-27T08:10:25.722Z,76.43
2019-02-27T08:12:56.389Z,76.53
2019-02-27T08:15:25.695Z,76.54
2019-02-27T08:17:57.463Z,74.40
2019-02-27T08:20:25.387Z,74.40
2019-02-27T08:22:54.238Z,72.66
2019-02-27T08:25:23.137Z,71.49
2019-02-27T08:27:54.128Z,71.22
2019-02-27T08:30:25.069Z,70.69
2019-02-27T08:32:53.940Z,70.74
2019-02-27T08:35:22.827Z,70.75
2019-02-27T08:37:51.697Z,70.50
2019-02-27T08:40:24.413Z,70.05
2019-02-27T08:42:51.215Z,70.64
2019-02-27T08:45:20.859Z,70.85
2019-02-27T08:47:49.800Z,70.88
2019-02-27T08:50:20.857Z,70.57
2019-02-27T08:52:51.557Z,70.38
2019-02-27T08:55:22.662Z,69.62
2019-02-27T08:57:56.044Z,69.17
2019-02-27T09:00:27.277Z,68.76
2019-02-27T09:02:56.035Z,68.64
2019-02-27T09:05:24.709Z,68.27
2019-02-27T09:07:53.587Z,67.86
2019-02-27T09:10:30.267Z,66.97
2019-02-27T09:13:05.102Z,66.41
2019-02-27T09:15:26.909Z,66.02
2019-02-27T09:17:55.520Z,65.34
2019-02-27T09:20:24.085Z,64.89
2019-02-27T09:22:52.677Z,64.77
2019-02-27T09:25:24.549Z,64.23
2019-02-27T09:27:51.562Z,63.48
2019-02-27T09:30:21.807Z,62.27
2019-02-27T09:32:50.385Z,62.40
2019-02-27T09:35:19.015Z,62.08
2019-02-27T09:37:48.249Z,61.69
2019-02-27T09:40:23.248Z,61.78
2019-02-27T09:42:53.073Z,61.21
2019-02-27T09:45:30.913Z,60.47
2019-02-27T09:48:00.661Z,58.76
2019-02-27T09:50:34.669Z,57.44
2019-02-27T09:53:04.248Z,55.56
2019-02-27T09:55:33.035Z,53.80
2019-02-27T09:58:01.741Z,52.65
2019-02-27T10:00:35.534Z,52.75
2019-02-27T10:03:04.375Z,51.87
2019-02-27T10:05:36.307Z,52.31
2019-02-27T10:08:03.915Z,52.55
2019-02-27T10:10:32.527Z,52.68
2019-02-27T10:13:03.280Z,51.29
2019-02-27T10:15:31.394Z,49.47
2019-02-27T10:17:59.989Z,50.28
2019-02-27T10:20:28.585Z,49.77
2019-02-27T10:22:57.189Z,49.83
2019-02-27T10:25:25.826Z,48.48
2019-02-27T10:27:54.427Z,45.85
2019-02-27T10:30:23.089Z,45.85
2019-02-27T10:32:51.679Z,44.67
2019-02-27T10:35:20.272Z,43.94
2019-02-27T10:37:50.752Z,42.91
2019-02-27T10:40:24.253Z,42.91
2019-02-27T10:42:52.860Z,43.53
2019-02-27T10:45:21.423Z,43.69
2019-02-27T10:47:50.202Z,43.69
2019-02-27T10:50:18.787Z,43.87
2019-02-27T10:52:47.401Z,42.77
2019-02-27T10:55:19.989Z,42.14
2019-02-27T10:57:48.572Z,41.65
2019-02-27T11:00:19.707Z,41.65
2019-02-27T11:02:48.664Z,41.84
2019-02-27T11:05:18.426Z,41.12
2019-02-27T11:07:47.040Z,40.36
2019-02-27T11:10:15.989Z,40.69
2019-02-27T11:12:44.615Z,40.87
2019-02-27T11:15:18.041Z,40.68
2019-02-27T11:17:46.809Z,40.80
2019-02-27T11:20:20.262Z,40.82
2019-02-27T11:22:45.905Z,40.51
2019-02-27T11:25:17.193Z,39.90
2019-02-27T11:27:45.820Z,39.15
2019-02-27T11:30:20.133Z,38.86
2019-02-27T11:32:48.706Z,37.85
2019-02-27T11:35:17.384Z,37.83
2019-02-27T11:37:47.479Z,37.83
2019-02-27T11:40:19.120Z,38.19
2019-02-27T11:42:47.847Z,37.99
2019-02-27T11:45:17.861Z,35.88
2019-02-27T11:47:48.065Z,35.88
2019-02-27T11:50:18.711Z,34.83
2019-02-27T11:52:49.153Z,33.49
2019-02-27T11:55:19.069Z,33.49
2019-02-27T11:57:47.672Z,33.55
2019-02-27T12:00:27.526Z,32.31
2019-02-27T12:02:57.067Z,31.64
2019-02-27T12:05:30.272Z,30.91
2019-02-27T12:07:57.063Z,30.87
2019-02-27T12:10:33.059Z,30.69
2019-02-27T12:13:01.837Z,31.74
2019-02-27T12:15:30.771Z,31.37
2019-02-27T12:18:00.574Z,31.23
2019-02-27T12:20:29.830Z,31.17
2019-02-27T12:22:58.435Z,31.38
2019-02-27T12:25:29.818Z,30.71
2019-02-27T12:27:57.383Z,31.25
2019-02-27T12:30:28.189Z,31.41
2019-02-27T12:32:57.216Z,31.83
2019-02-27T12:35:28.969Z,32.08
2019-02-27T12:37:57.569Z,31.95
2019-02-27T12:40:26.319Z,32.09
2019-02-27T12:42:55.261Z,32.30
2019-02-27T12:45:29.647Z,32.75
2019-02-27T12:47:58.566Z,33.48
2019-02-27T12:50:31.100Z,33.55
2019-02-27T12:52:58.902Z,33.28
2019-02-27T12:55:27.499Z,33.38
2019-02-27T12:57:56.304Z,32.96
2019-02-27T13:00:35.253Z,32.35
2019-02-27T13:03:08.410Z,32.08
2019-02-27T13:05:34.341Z,31.90
2019-02-27T13:08:02.926Z,32.30
2019-02-27T13:10:34.048Z,31.26
2019-02-27T13:13:01.818Z,31.42
2019-02-27T13:15:30.868Z,31.09
2019-02-27T13:17:59.474Z,31.12
2019-02-27T13:20:33.306Z,30.94
2019-02-27T13:23:05.192Z,30.78
2019-02-27T13:25:32.215Z,30.60
2019-02-27T13:28:00.794Z,30.46
2019-02-27T13:30:29.665Z,29.25
2019-02-27T13:33:01.206Z,29.27
2019-02-27T13:35:29.162Z,28.12
2019-02-27T13:37:59.549Z,28.21
2019-02-27T13:40:29.415Z,27.37
2019-02-27T13:42:57.988Z,26.90
2019-02-27T13:45:28.774Z,26.54
2019-02-27T13:47:58.976Z,26.86
2019-02-27T13:50:27.807Z,26.35
2019-02-27T13:52:56.372Z,26.23
2019-02-27T13:55:25.030Z,26.46
2019-02-27T13:57:58.711Z,26.67
2019-02-27T14:00:29.817Z,26.67
2019-02-27T14:02:58.583Z,26.58
2019-02-27T14:05:27.931Z,26.65
2019-02-27T14:07:58.669Z,25.58
2019-02-27T14:10:31.977Z,25.08
2019-02-27T14:13:00.660Z,24.08
2019-02-27T14:15:31.342Z,23.64
2019-02-27T14:17:59.843Z,23.85
2019-02-27T14:20:29.163Z,23.03
2019-02-27T14:22:58.358Z,23.71
2019-02-27T14:25:32.639Z,23.07
2019-02-27T14:27:59.410Z,22.71
2019-02-27T14:30:42.615Z,22.62
2019-02-27T14:33:11.220Z,22.90
2019-02-27T14:35:39.837Z,23.22
2019-02-27T14:38:08.494Z,23.12
2019-02-27T14:40:40.059Z,22.98
2019-02-27T14:43:07.553Z,22.76
2019-02-27T14:45:39.870Z,22.55
2019-02-27T14:48:06.526Z,22.68
2019-02-27T14:50:35.185Z,23.06
2019-02-27T14:53:03.752Z,24.02
2019-02-27T14:55:36.260Z,24.74
2019-02-27T14:58:02.724Z,25.31
2019-02-27T15:00:40.026Z,25.38
2019-02-27T15:03:07.006Z,25.21
2019-02-27T15:05:36.856Z,25.35
2019-02-27T15:08:05.823Z,25.81
2019-02-27T15:10:34.398Z,26.16
2019-02-27T15:13:03.019Z,26.50
2019-02-27T15:15:32.654Z,26.67
2019-02-27T15:18:01.804Z,26.95
2019-02-27T15:20:30.940Z,27.22
2019-02-27T15:22:59.500Z,27.71
2019-02-27T15:25:28.247Z,28.07
2019-02-27T15:27:58.770Z,28.23
2019-02-27T15:30:31.768Z,28.97
2019-02-27T15:33:05.172Z,29.46
2019-02-27T15:35:33.083Z,29.43
2019-02-27T15:38:01.751Z,29.70
2019-02-27T15:40:33.112Z,29.68
2019-02-27T15:43:10.673Z,29.64
2019-02-27T15:45:32.117Z,29.88
2019-02-27T15:48:00.709Z,30.22
2019-02-27T15:50:31.768Z,30.46
2019-02-27T15:53:00.366Z,30.39
2019-02-27T15:55:32.974Z,30.77
2019-02-27T15:57:59.285Z,30.96
2019-02-27T16:00:28.859Z,31.39
2019-02-27T16:02:57.594Z,31.36
2019-02-27T16:05:30.195Z,30.99
2019-02-27T16:07:56.506Z,31.44
2019-02-27T16:10:26.216Z,31.49
2019-02-27T16:13:00.008Z,31.90
2019-02-27T16:15:25.311Z,31.95
2019-02-27T16:17:53.903Z,32.43
2019-02-27T16:20:24.314Z,32.44
2019-02-27T16:22:53.149Z,32.79
2019-02-27T16:25:23.781Z,33.33
2019-02-27T16:27:52.430Z,33.42
2019-02-27T16:30:22.974Z,32.89
2019-02-27T16:32:51.580Z,33.20
2019-02-27T16:35:20.315Z,33.49
2019-02-27T16:37:49.051Z,34.75
2019-02-27T16:40:22.225Z,34.23
2019-02-27T16:42:50.795Z,34.70
2019-02-27T16:45:22.422Z,34.80
2019-02-27T16:47:51.083Z,35.48
2019-02-27T16:50:24.792Z,36.04
2019-02-27T16:52:52.797Z,36.46
2019-02-27T16:55:23.167Z,36.67
2019-02-27T16:57:56.571Z,36.91
2019-02-27T17:00:33.528Z,37.44
2019-02-27T17:03:02.090Z,37.41
2019-02-27T17:05:31.854Z,36.73
2019-02-27T17:08:02.557Z,36.92
2019-02-27T17:10:39.059Z,35.86
2019-02-27T17:13:07.647Z,36.63
2019-02-27T17:15:36.547Z,37.78
2019-02-27T17:18:05.319Z,38.70
2019-02-27T17:20:33.915Z,38.78
2019-02-27T17:23:06.850Z,39.29
2019-02-27T17:25:32.840Z,39.60
2019-02-27T17:28:01.481Z,39.60
2019-02-27T17:30:37.713Z,40.39
2019-02-27T17:33:05.467Z,40.42
2019-02-27T17:35:34.361Z,40.82
2019-02-27T17:38:03.237Z,41.30
2019-02-27T17:40:36.668Z,41.23
2019-02-27T17:43:02.232Z,41.46
2019-02-27T17:45:30.859Z,41.83
2019-02-27T17:47:59.475Z,41.81
2019-02-27T17:50:30.903Z,41.63
2019-02-27T17:52:58.425Z,41.78
2019-02-27T17:55:27.049Z,41.56
2019-02-27T17:57:58.467Z,41.35
2019-02-27T18:00:31.587Z,41.14
2019-02-27T18:03:00.342Z,41.35
2019-02-27T18:05:28.949Z,41.05
2019-02-27T18:07:57.560Z,41.08
2019-02-27T18:10:26.346Z,41.26
2019-02-27T18:12:54.944Z,41.06
2019-02-27T18:15:24.685Z,40.85
2019-02-27T18:17:53.620Z,40.53
2019-02-27T18:20:25.495Z,40.54
2019-02-27T18:22:52.631Z,39.85
2019-02-27T18:25:21.280Z,39.64
2019-02-27T18:27:49.844Z,39.62
2019-02-27T18:30:26.466Z,39.72
2019-02-27T18:32:55.050Z,39.72
2019-02-27T18:35:28.492Z,39.85
2019-02-27T18:37:55.084Z,40.03
2019-02-27T18:40:23.669Z,39.98
2019-02-27T18:42:55.345Z,39.79
2019-02-27T18:45:30.940Z,39.06
2019-02-27T18:47:59.537Z,38.55
2019-02-27T18:50:28.659Z,38.23
2019-02-27T18:52:57.247Z,37.17
2019-02-27T18:55:29.282Z,36.83
2019-02-27T18:57:57.742Z,36.83
2019-02-27T19:00:30.367Z,38.08
2019-02-27T19:03:07.817Z,38.08
2019-02-27T19:05:38.187Z,37.81
2019-02-27T19:08:08.314Z,37.81
2019-02-27T19:10:41.302Z,37.50
2019-02-27T19:13:07.395Z,37.50
2019-02-27T19:15:36.053Z,37.43
2019-02-27T19:18:06.566Z,37.72
2019-02-27T19:20:43.330Z,37.39
2019-02-27T19:23:17.172Z,37.39
2019-02-27T19:25:44.262Z,36.60
2019-02-27T19:28:14.588Z,36.60
2019-02-27T19:30:43.370Z,36.85
2019-02-27T19:33:12.032Z,36.80
2019-02-27T19:35:40.610Z,37.08
2019-02-27T19:38:12.610Z,37.41
2019-02-27T19:40:39.614Z,37.41
2019-02-27T19:43:08.609Z,37.87
2019-02-27T19:45:37.194Z,38.96
2019-02-27T19:48:06.110Z,38.55
2019-02-27T19:50:34.731Z,38.55
2019-02-27T19:53:06.818Z,38.82
2019-02-27T19:55:34.250Z,38.72
2019-02-27T19:58:02.821Z,38.78
2019-02-27T20:00:35.036Z,39.18
2019-02-27T20:03:03.047Z,39.60
2019-02-27T20:05:33.006Z,39.60
2019-02-27T20:08:02.586Z,39.89
2019-02-27T20:10:33.349Z,39.89
2019-02-27T20:13:02.030Z,39.89
2019-02-27T20:15:32.103Z,40.12
2019-02-27T20:18:07.876Z,40.12
2019-02-27T20:20:40.070Z,39.88
2019-02-27T20:23:07.913Z,39.90
2019-02-27T20:25:36.337Z,40.01
2019-02-27T20:28:04.955Z,39.72
2019-02-27T20:30:33.939Z,39.79
2019-02-27T20:33:03.190Z,39.95
2019-02-27T20:35:32.177Z,39.95
2019-02-27T20:38:01.703Z,40.26
2019-02-27T20:40:33.704Z,40.25
2019-02-27T20:43:02.546Z,40.35
2019-02-27T20:45:31.161Z,40.33
2019-02-27T20:48:01.891Z,40.54
2019-02-27T20:50:40.375Z,40.57
2019-02-27T20:53:11.652Z,40.77
2019-02-27T20:55:40.261Z,40.91
2019-02-27T20:58:09.543Z,41.10
2019-02-27T21:00:38.613Z,41.09
2019-02-27T21:03:08.211Z,41.19
2019-02-27T21:05:37.337Z,41.62
2019-02-27T21:08:05.948Z,41.62
2019-02-27T21:10:35.875Z,41.77
2019-02-27T21:13:05.006Z,41.69
2019-02-27T21:15:33.905Z,41.98
2019-02-27T21:18:02.466Z,42.69
2019-02-27T21:20:33.113Z,43.03
2019-02-27T21:23:01.403Z,43.68
2019-02-27T21:25:30.040Z,43.84
2019-02-27T21:28:00.167Z,43.44
2019-02-27T21:30:28.802Z,43.40
2019-02-27T21:32:57.392Z,43.61
2019-02-27T21:35:29.127Z,43.77
2019-02-27T21:37:56.496Z,43.91
2019-02-27T21:40:26.867Z,43.67
2019-02-27T21:42:55.439Z,43.85
2019-02-27T21:45:24.306Z,43.93
2019-02-27T21:47:54.106Z,44.01
2019-02-27T21:50:26.888Z,43.97
2019-02-27T21:52:55.852Z,44.10
2019-02-27T21:55:24.901Z,44.37
2019-02-27T21:57:58.063Z,44.20
2019-02-27T22:00:26.492Z,44.25
2019-02-27T22:03:03.993Z,44.67
2019-02-27T22:05:29.182Z,44.66
2019-02-27T22:07:58.447Z,44.96
2019-02-27T22:10:27.019Z,44.82
2019-02-27T22:12:55.618Z,44.91
2019-02-27T22:15:29.477Z,45.04
2019-02-27T22:17:58.440Z,45.02
2019-02-27T22:20:27.111Z,45.35
2019-02-27T22:22:55.673Z,45.45
2019-02-27T22:25:24.266Z,45.44
2019-02-27T22:27:53.151Z,45.37
2019-02-27T22:30:22.586Z,45.42
2019-02-27T22:32:51.188Z,45.63
2019-02-27T22:35:19.741Z,45.84
2019-02-27T22:37:51.106Z,45.84
2019-02-27T22:40:19.875Z,46.16
2019-02-27T22:42:49.349Z,46.28
2019-02-27T22:45:19.013Z,46.72
2019-02-27T22:47:48.174Z,46.78
2019-02-27T22:50:22.876Z,47.00
2019-02-27T22:52:54.735Z,47.81
2019-02-27T22:55:21.758Z,47.83
2019-02-27T22:57:50.368Z,48.58
2019-02-27T23:00:51.327Z,49.30
2019-02-27T23:03:23.747Z,49.59
2019-02-27T23:05:53.157Z,49.85
2019-02-27T23:08:22.968Z,50.21
2019-02-27T23:10:52.194Z,50.59
2019-02-27T23:13:20.779Z,50.54
2019-02-27T23:15:49.346Z,50.44
2019-02-27T23:18:18.015Z,50.49
2019-02-27T23:20:46.598Z,50.35
2019-02-27T23:23:15.187Z,50.35
2019-02-27T23:25:46.573Z,49.76
2019-02-27T23:28:14.035Z,49.94
2019-02-27T23:30:42.635Z,50.22
2019-02-27T23:33:11.203Z,50.17
2019-02-27T23:35:39.797Z,50.53
2019-02-27T23:38:08.370Z,50.45
2019-02-27T23:40:36.967Z,51.28
2019-02-27T23:43:05.602Z,51.75
2019-02-27T23:45:34.161Z,51.60
2019-02-27T23:48:03.059Z,51.75
2019-02-27T23:50:31.611Z,51.73
2019-02-27T23:53:00.184Z,51.91
2019-02-27T23:55:28.754Z,52.31
2019-02-27T23:57:57.972Z,52.75
